createdAt,value
2023-05-03T00:00:08.126Z,1.80
2023-05-03T00:02:40.267Z,1.25
2023-05-03T00:07:36.496Z,1.08
2023-05-03T00:10:03.150Z,1.20
2023-05-03T00:12:29.840Z,1.30
2023-05-03T00:14:56.243Z,1.33
2023-05-03T00:17:22.690Z,1.38
2023-05-03T00:19:49.183Z,1.40
2023-05-03T00:22:15.604Z,1.23
2023-05-03T00:24:42.014Z,1.38
2023-05-03T00:27:08.390Z,1.10
2023-05-03T00:32:02.172Z,1.60
2023-05-03T00:34:28.687Z,1.23
2023-05-03T00:36:55.094Z,1.20
2023-05-03T00:39:21.529Z,1.42
2023-05-03T00:41:47.940Z,1.50
2023-05-03T00:44:15.118Z,1.58
2023-05-03T00:46:41.599Z,1.33
2023-05-03T00:49:08.053Z,1.70
2023-05-03T00:51:34.653Z,1.85
2023-05-03T00:54:01.220Z,1.65
2023-05-03T00:56:31.003Z,1.63
2023-05-03T00:58:59.894Z,1.67
2023-05-03T01:01:26.700Z,1.88
2023-05-03T01:03:53.441Z,1.48
2023-05-03T01:06:32.159Z,1.80
2023-05-03T01:09:16.768Z,1.80
2023-05-03T01:14:41.251Z,1.70
2023-05-03T01:17:15.395Z,2.00
2023-05-03T01:19:48.874Z,1.27
2023-05-03T01:22:42.497Z,1.65
2023-05-03T01:25:11.162Z,1.58
2023-05-03T01:27:38.851Z,1.30
2023-05-03T01:30:07.484Z,1.73
2023-05-03T01:32:56.213Z,1.38
2023-05-03T01:35:42.354Z,1.55
2023-05-03T01:38:10.150Z,1.50
2023-05-03T01:40:43.229Z,1.75
2023-05-03T01:43:12.051Z,1.30
2023-05-03T01:45:38.546Z,1.27
2023-05-03T01:48:16.075Z,1.45
2023-05-03T01:50:42.454Z,1.67
2023-05-03T01:55:35.152Z,1.30
2023-05-03T02:00:27.834Z,1.20
2023-05-03T02:02:54.399Z,1.52
2023-05-03T02:05:22.033Z,1.60
2023-05-03T02:07:48.370Z,1.45
2023-05-03T02:10:15.085Z,1.33
2023-05-03T02:12:42.741Z,1.58
2023-05-03T02:15:10.037Z,1.60
2023-05-03T02:17:37.464Z,1.88
2023-05-03T02:20:10.958Z,1.60
2023-05-03T02:22:37.464Z,1.40
2023-05-03T02:25:04.912Z,1.33
2023-05-03T02:27:31.404Z,1.40
2023-05-03T02:32:24.093Z,1.30
2023-05-03T02:37:16.993Z,1.40
2023-05-03T02:39:43.322Z,1.70
2023-05-03T02:42:09.665Z,1.25
2023-05-03T02:44:35.970Z,1.55
2023-05-03T02:47:02.341Z,1.67
2023-05-03T02:51:56.690Z,1.58
2023-05-03T02:54:23.290Z,1.30
2023-05-03T02:56:49.736Z,1.83
2023-05-03T03:01:42.403Z,1.38
2023-05-03T03:06:36.011Z,1.58
2023-05-03T03:09:02.564Z,1.40
2023-05-03T03:13:55.374Z,1.20
2023-05-03T03:18:48.065Z,1.60
2023-05-03T03:21:14.436Z,1.30
2023-05-03T03:23:40.922Z,1.83
2023-05-03T03:28:33.626Z,1.27
2023-05-03T03:33:26.535Z,1.55
2023-05-03T03:35:53.230Z,1.95
2023-05-03T03:38:19.688Z,1.48
2023-05-03T03:43:12.433Z,1.80
2023-05-03T03:45:38.814Z,1.52
2023-05-03T03:48:05.686Z,1.80
2023-05-03T03:50:32.162Z,1.80
2023-05-03T03:55:24.912Z,1.85
2023-05-03T03:57:51.300Z,1.67
2023-05-03T04:00:17.848Z,1.70
2023-05-03T04:02:44.967Z,1.70
2023-05-03T04:05:12.873Z,1.70
2023-05-03T04:07:39.181Z,1.83
2023-05-03T04:10:06.174Z,1.67
2023-05-03T04:12:33.999Z,2.03
2023-05-03T04:15:00.387Z,1.63
2023-05-03T04:17:26.824Z,1.58
2023-05-03T04:22:19.547Z,1.30
2023-05-03T04:24:45.975Z,1.70
2023-05-03T04:29:41.598Z,1.50
2023-05-03T04:32:08.263Z,1.30
2023-05-03T04:34:34.626Z,1.60
2023-05-03T04:37:00.984Z,1.42
2023-05-03T04:39:27.372Z,1.55
2023-05-03T04:41:53.772Z,1.60
2023-05-03T04:44:21.186Z,1.67
2023-05-03T04:46:48.851Z,1.80
2023-05-03T04:49:17.794Z,1.90
2023-05-03T04:51:44.188Z,2.00
2023-05-03T04:54:10.547Z,1.92
2023-05-03T04:56:36.894Z,2.00
2023-05-03T04:59:04.325Z,1.90
2023-05-03T05:01:30.923Z,2.10
2023-05-03T05:03:57.537Z,1.70
2023-05-03T05:06:24.178Z,2.00
2023-05-03T05:08:50.844Z,1.80
2023-05-03T05:11:17.338Z,1.63
2023-05-03T05:13:43.770Z,1.48
2023-05-03T05:18:36.468Z,1.42
2023-05-03T05:23:29.852Z,2.00
2023-05-03T05:28:28.074Z,1.73
2023-05-03T05:30:54.549Z,1.92
2023-05-03T05:35:48.662Z,2.00
2023-05-03T05:38:17.372Z,1.70
2023-05-03T05:40:44.077Z,1.90
2023-05-03T05:43:10.453Z,1.70
2023-05-03T05:48:04.590Z,1.50
2023-05-03T05:50:31.669Z,1.90
2023-05-03T05:52:58.052Z,1.25
2023-05-03T05:57:51.276Z,1.30
2023-05-03T06:02:45.705Z,1.30
2023-05-03T06:05:12.250Z,1.75
2023-05-03T06:07:39.034Z,1.55
2023-05-03T06:10:06.403Z,1.50
2023-05-03T06:12:32.964Z,1.58
2023-05-03T06:19:57.427Z,1.40
2023-05-03T06:22:25.018Z,1.77
2023-05-03T06:24:51.409Z,1.80
2023-05-03T06:27:17.883Z,1.65
2023-05-03T06:29:44.921Z,1.95
2023-05-03T06:32:11.451Z,1.70
2023-05-03T06:34:37.958Z,1.67
2023-05-03T06:37:04.399Z,2.25
2023-05-03T06:39:31.124Z,1.95
2023-05-03T06:41:57.571Z,1.55
2023-05-03T06:44:23.952Z,1.33
2023-05-03T06:46:51.262Z,1.67
2023-05-03T06:49:17.707Z,1.65
2023-05-03T06:51:44.165Z,1.90
2023-05-03T06:54:10.568Z,1.85
2023-05-03T06:56:37.035Z,1.92
2023-05-03T06:59:04.064Z,2.00
2023-05-03T07:01:33.987Z,1.98
2023-05-03T07:04:01.040Z,1.80
2023-05-03T07:06:27.491Z,1.60
2023-05-03T07:08:54.076Z,1.58
2023-05-03T07:11:24.472Z,1.25
2023-05-03T07:13:51.610Z,1.50
2023-05-03T07:16:18.853Z,1.25
2023-05-03T07:18:46.540Z,1.80
2023-05-03T07:21:13.678Z,1.30
2023-05-03T07:23:41.004Z,2.85
2023-05-03T07:26:08.052Z,1.55
2023-05-03T07:28:34.522Z,1.52
2023-05-03T07:31:01.670Z,1.52
2023-05-03T07:33:28.051Z,1.30
2023-05-03T07:35:54.516Z,2.03
2023-05-03T07:38:21.009Z,1.42
2023-05-03T07:40:47.351Z,1.45
2023-05-03T07:43:14.076Z,1.40
2023-05-03T07:45:40.582Z,1.35
2023-05-03T07:48:07.144Z,1.40
2023-05-03T07:50:33.518Z,1.40
2023-05-03T07:52:59.955Z,1.30
2023-05-03T07:55:26.642Z,1.45
2023-05-03T07:57:58.303Z,1.48
2023-05-03T08:00:26.102Z,1.42
2023-05-03T08:02:52.605Z,1.60
2023-05-03T08:05:19.338Z,1.67
2023-05-03T08:07:45.810Z,1.60
2023-05-03T08:10:12.883Z,1.77
2023-05-03T08:12:39.416Z,1.35
2023-05-03T08:15:06.878Z,1.83
2023-05-03T08:17:39.482Z,1.20
2023-05-03T08:20:08.013Z,1.38
2023-05-03T08:22:37.450Z,1.40
2023-05-03T08:25:04.950Z,1.20
2023-05-03T08:27:32.266Z,1.55
2023-05-03T08:30:00.274Z,1.48
2023-05-03T08:32:26.859Z,1.67
2023-05-03T08:34:54.552Z,1.48
2023-05-03T08:37:20.955Z,1.70
2023-05-03T08:39:47.496Z,1.35
2023-05-03T08:42:14.157Z,1.40
2023-05-03T08:44:48.415Z,1.10
2023-05-03T08:47:18.798Z,1.33
2023-05-03T08:49:45.263Z,1.42
2023-05-03T08:52:14.760Z,1.58
2023-05-03T08:54:41.593Z,1.75
2023-05-03T08:57:11.732Z,1.20
2023-05-03T08:59:51.400Z,1.67
2023-05-03T09:02:17.982Z,1.50
2023-05-03T09:04:45.017Z,1.30
2023-05-03T09:07:13.312Z,1.40
2023-05-03T09:09:39.830Z,1.25
2023-05-03T09:12:06.449Z,1.30
2023-05-03T09:14:45.826Z,1.55
2023-05-03T09:17:17.466Z,1.00
2023-05-03T09:19:52.232Z,1.50
2023-05-03T09:22:19.133Z,1.50
2023-05-03T09:24:58.128Z,1.70
2023-05-03T09:27:25.509Z,1.30
2023-05-03T09:29:53.246Z,1.60
2023-05-03T09:32:21.988Z,1.55
2023-05-03T09:34:48.689Z,1.30
2023-05-03T09:37:15.198Z,1.42
2023-05-03T09:39:43.085Z,1.48
2023-05-03T09:42:17.341Z,1.88
2023-05-03T09:44:48.561Z,1.60
2023-05-03T09:47:15.407Z,1.67
2023-05-03T09:49:41.928Z,2.00
2023-05-03T09:52:08.759Z,1.58
2023-05-03T09:54:35.529Z,1.55
2023-05-03T09:57:06.412Z,1.77
2023-05-03T09:59:34.314Z,1.48
2023-05-03T10:02:03.253Z,1.60
2023-05-03T10:04:38.710Z,1.50
2023-05-03T10:07:10.683Z,1.30
2023-05-03T10:09:46.650Z,1.40
2023-05-03T10:12:16.434Z,1.58
2023-05-03T10:14:48.260Z,1.70
2023-05-03T10:17:39.456Z,1.30
2023-05-03T10:20:22.849Z,1.73
2023-05-03T10:23:04.817Z,1.50
2023-05-03T10:25:32.168Z,1.52
2023-05-03T10:28:05.962Z,1.35
2023-05-03T10:30:41.507Z,1.45
2023-05-03T10:33:14.058Z,1.27
2023-05-03T10:35:42.437Z,1.80
2023-05-03T10:38:16.150Z,1.50
2023-05-03T10:40:44.027Z,1.60
2023-05-03T10:43:36.596Z,1.50
2023-05-03T10:46:09.147Z,2.17
2023-05-03T10:48:35.782Z,2.08
2023-05-03T10:51:32.951Z,1.80
2023-05-03T10:53:59.563Z,2.25
2023-05-03T10:56:26.009Z,1.50
2023-05-03T10:58:56.041Z,2.20
2023-05-03T11:01:24.673Z,1.80
2023-05-03T11:04:12.375Z,2.53
2023-05-03T11:06:41.314Z,1.75
2023-05-03T11:09:09.682Z,1.95
2023-05-03T11:11:39.234Z,1.83
2023-05-03T11:14:07.027Z,2.28
2023-05-03T11:16:33.574Z,2.22
2023-05-03T11:19:00.356Z,2.03
2023-05-03T11:21:27.476Z,2.10
2023-05-03T11:23:53.821Z,1.50
2023-05-03T11:26:25.796Z,2.20
2023-05-03T11:28:53.906Z,2.20
2023-05-03T11:31:21.200Z,1.83
2023-05-03T11:33:49.400Z,2.08
2023-05-03T11:36:16.125Z,2.00
2023-05-03T11:38:42.578Z,2.20
2023-05-03T11:41:14.296Z,2.17
2023-05-03T11:46:08.893Z,2.03
2023-05-03T11:48:36.132Z,1.98
2023-05-03T11:51:07.976Z,1.77
2023-05-03T11:53:37.657Z,2.45
2023-05-03T11:56:07.023Z,2.28
2023-05-03T11:58:33.541Z,2.10
2023-05-03T12:01:00.014Z,2.60
2023-05-03T12:03:36.166Z,2.42
2023-05-03T12:06:04.751Z,2.22
2023-05-03T12:08:35.994Z,2.35
2023-05-03T12:11:06.170Z,2.42
2023-05-03T12:13:38.573Z,2.28
2023-05-03T12:16:12.929Z,2.42
2023-05-03T12:18:55.778Z,2.40
2023-05-03T12:23:55.668Z,2.15
2023-05-03T12:26:23.269Z,2.42
2023-05-03T12:28:49.996Z,2.78
2023-05-03T12:31:18.222Z,2.50
2023-05-03T12:33:53.833Z,2.55
2023-05-03T12:36:32.885Z,2.45
2023-05-03T12:39:03.020Z,2.20
2023-05-03T12:42:04.791Z,2.65
2023-05-03T12:44:22.438Z,2.38
2023-05-03T12:49:17.383Z,2.80
2023-05-03T12:51:48.985Z,2.40
2023-05-03T12:54:21.117Z,2.55
2023-05-03T12:56:48.005Z,2.33
2023-05-03T13:06:44.893Z,2.33
2023-05-03T13:09:19.026Z,2.80
2023-05-03T13:11:48.278Z,2.58
2023-05-03T13:14:16.311Z,2.80
2023-05-03T13:16:45.545Z,2.45
2023-05-03T13:19:13.261Z,3.60
2023-05-03T13:21:39.686Z,4.60
2023-05-03T13:24:06.538Z,2.42
2023-05-03T13:26:33.197Z,2.70
2023-05-03T13:29:02.079Z,9.43
2023-05-03T13:31:29.993Z,2.35
2023-05-03T13:33:57.143Z,3.75
2023-05-03T13:36:24.253Z,2.70
2023-05-03T13:38:51.732Z,5.03
2023-05-03T13:41:18.624Z,2.65
2023-05-03T13:43:45.104Z,2.90
2023-05-03T13:46:12.536Z,15.00
2023-05-03T13:48:39.758Z,2.38
2023-05-03T13:51:10.992Z,7.85
2023-05-03T13:53:38.240Z,3.72
2023-05-03T13:56:06.185Z,2.78
2023-05-03T13:58:32.564Z,3.20
2023-05-03T14:00:58.895Z,2.17
2023-05-03T14:03:25.437Z,2.13
2023-05-03T14:05:51.930Z,2.70
2023-05-03T14:08:18.323Z,2.05
2023-05-03T14:10:44.800Z,1.92
2023-05-03T14:13:11.398Z,2.20
2023-05-03T14:15:45.286Z,2.50
2023-05-03T14:18:11.848Z,2.40
2023-05-03T14:20:38.369Z,2.78
2023-05-03T14:23:04.821Z,2.60
2023-05-03T14:25:31.322Z,2.40
2023-05-03T14:27:57.764Z,2.88
2023-05-03T14:30:24.358Z,2.40
2023-05-03T14:32:51.018Z,2.65
2023-05-03T14:35:20.681Z,2.47
2023-05-03T14:37:47.145Z,2.90
2023-05-03T14:40:14.377Z,2.72
2023-05-03T14:42:41.096Z,2.72
2023-05-03T14:45:10.170Z,2.65
2023-05-03T14:47:39.265Z,2.28
2023-05-03T14:50:06.492Z,2.22
2023-05-03T14:52:35.568Z,2.38
2023-05-03T14:55:02.240Z,2.90
2023-05-03T14:57:28.777Z,2.10
2023-05-03T14:59:55.360Z,2.20
2023-05-03T15:02:22.567Z,2.13
2023-05-03T15:04:49.123Z,2.33
2023-05-03T15:07:15.502Z,2.05
2023-05-03T15:09:41.862Z,2.30
2023-05-03T15:12:08.636Z,2.13
2023-05-03T15:14:35.071Z,2.55
2023-05-03T15:17:01.767Z,2.40
2023-05-03T15:19:28.279Z,2.22
2023-05-03T15:21:54.949Z,2.70
2023-05-03T15:24:22.205Z,2.40
2023-05-03T15:26:48.672Z,2.60
2023-05-03T15:29:15.730Z,3.20
2023-05-03T15:31:43.269Z,2.65
2023-05-03T15:34:11.341Z,2.53
2023-05-03T15:36:38.009Z,2.50
2023-05-03T15:39:04.442Z,2.15
2023-05-03T15:41:30.863Z,2.72
2023-05-03T15:43:57.632Z,2.40
2023-05-03T15:46:24.127Z,3.28
2023-05-03T15:48:52.832Z,3.00
2023-05-03T15:51:19.344Z,2.90
2023-05-03T15:53:45.931Z,2.70
2023-05-03T15:56:12.523Z,2.60
2023-05-03T15:58:38.899Z,2.67
2023-05-03T16:01:05.332Z,2.78
2023-05-03T16:03:31.738Z,2.90
2023-05-03T16:05:58.567Z,2.75
2023-05-03T16:08:25.260Z,2.35
2023-05-03T16:10:51.909Z,2.78
2023-05-03T16:13:18.473Z,2.90
2023-05-03T16:15:45.484Z,2.70
2023-05-03T16:18:12.063Z,2.95
2023-05-03T16:20:38.761Z,3.63
2023-05-03T16:23:05.173Z,2.95
2023-05-03T16:25:31.796Z,2.90
2023-05-03T16:27:58.176Z,2.58
2023-05-03T16:30:24.706Z,2.90
2023-05-03T16:32:52.341Z,3.05
2023-05-03T16:35:19.257Z,3.25
2023-05-03T16:37:45.677Z,3.03
2023-05-03T16:40:12.192Z,2.60
2023-05-03T16:42:39.660Z,2.72
2023-05-03T16:45:15.856Z,3.30
2023-05-03T16:47:42.712Z,3.42
2023-05-03T16:50:09.632Z,2.65
2023-05-03T16:52:40.416Z,3.20
2023-05-03T16:55:07.845Z,3.00
2023-05-03T16:57:34.175Z,2.90
2023-05-03T17:00:08.280Z,3.40
2023-05-03T17:02:36.202Z,3.20
2023-05-03T17:05:05.128Z,2.85
2023-05-03T17:07:32.985Z,3.75
2023-05-03T17:10:00.222Z,3.50
2023-05-03T17:12:26.786Z,3.10
2023-05-03T17:14:53.231Z,3.22
2023-05-03T17:17:19.710Z,2.70
2023-05-03T17:19:46.178Z,2.97
2023-05-03T17:22:13.196Z,3.28
2023-05-03T17:24:39.994Z,3.10
2023-05-03T17:27:09.266Z,2.97
2023-05-03T17:29:35.776Z,3.75
2023-05-03T17:32:03.839Z,2.80
2023-05-03T17:34:30.952Z,3.60
2023-05-03T17:36:58.972Z,3.05
2023-05-03T17:39:25.484Z,3.50
2023-05-03T17:41:51.823Z,3.00
2023-05-03T17:44:18.252Z,3.03
2023-05-03T17:46:44.798Z,3.17
2023-05-03T17:49:11.245Z,3.30
2023-05-03T17:51:37.580Z,2.72
2023-05-03T17:54:04.200Z,2.97
2023-05-03T17:56:30.635Z,2.70
2023-05-03T17:58:57.821Z,2.40
2023-05-03T18:01:24.891Z,3.10
2023-05-03T18:03:51.391Z,4.03
2023-05-03T18:06:17.864Z,2.50
2023-05-03T18:08:44.251Z,2.80
2023-05-03T18:11:10.675Z,2.53
2023-05-03T18:13:37.653Z,2.70
2023-05-03T18:16:08.360Z,2.78
2023-05-03T18:18:35.068Z,2.70
2023-05-03T18:21:03.697Z,3.10
2023-05-03T18:23:31.156Z,2.70
2023-05-03T18:25:57.560Z,2.17
2023-05-03T18:28:24.204Z,2.55
2023-05-03T18:30:52.881Z,2.60
2023-05-03T18:33:19.867Z,2.78
2023-05-03T18:35:51.125Z,2.42
2023-05-03T18:38:19.073Z,2.75
2023-05-03T18:40:46.200Z,2.50
2023-05-03T18:43:12.650Z,2.60
2023-05-03T18:45:39.905Z,2.75
2023-05-03T18:48:06.921Z,2.70
2023-05-03T18:50:33.786Z,2.72
2023-05-03T18:53:00.139Z,3.55
2023-05-03T18:55:26.513Z,3.00
2023-05-03T18:57:53.176Z,3.30
2023-05-03T19:00:19.591Z,2.90
2023-05-03T19:02:46.842Z,2.22
2023-05-03T19:05:14.250Z,2.83
2023-05-03T19:07:42.994Z,2.42
2023-05-03T19:10:10.011Z,2.55
2023-05-03T19:12:36.411Z,2.72
2023-05-03T19:15:03.412Z,3.05
2023-05-03T19:17:29.814Z,2.97
2023-05-03T19:19:56.262Z,2.80
2023-05-03T19:22:22.635Z,2.85
2023-05-03T19:24:49.166Z,3.30
2023-05-03T19:27:17.326Z,3.20
2023-05-03T19:29:44.032Z,3.00
2023-05-03T19:32:10.469Z,2.95
2023-05-03T19:34:36.792Z,3.00
2023-05-03T19:37:03.198Z,3.00
2023-05-03T19:39:32.630Z,2.90
2023-05-03T19:41:59.664Z,3.35
2023-05-03T19:44:28.675Z,3.17
2023-05-03T19:46:55.024Z,3.17
2023-05-03T19:49:22.022Z,2.75
2023-05-03T19:51:48.865Z,3.13
2023-05-03T19:54:15.194Z,3.53
2023-05-03T19:56:41.618Z,3.50
2023-05-03T19:59:08.871Z,3.08
2023-05-03T20:01:35.361Z,2.97
2023-05-03T20:04:01.877Z,3.38
2023-05-03T20:06:29.053Z,3.35
2023-05-03T20:08:55.436Z,2.92
2023-05-03T20:11:22.052Z,2.90
2023-05-03T20:13:48.465Z,3.88
2023-05-03T20:16:15.157Z,3.28
2023-05-03T20:18:41.994Z,3.20
2023-05-03T20:21:09.168Z,3.53
2023-05-03T20:23:35.551Z,2.92
2023-05-03T20:26:01.960Z,3.25
2023-05-03T20:28:28.898Z,3.30
2023-05-03T20:30:55.325Z,3.15
2023-05-03T20:33:21.836Z,3.92
2023-05-03T20:35:48.438Z,3.40
2023-05-03T20:38:15.047Z,3.50
2023-05-03T20:40:41.413Z,3.25
2023-05-03T20:43:07.816Z,3.60
2023-05-03T20:45:34.217Z,3.15
2023-05-03T20:48:00.679Z,3.10
2023-05-03T20:50:27.412Z,3.20
2023-05-03T20:52:55.248Z,3.28
2023-05-03T20:55:21.619Z,3.38
2023-05-03T20:57:48.023Z,3.30
2023-05-03T21:00:15.806Z,3.20
2023-05-03T21:02:43.156Z,2.95
2023-05-03T21:05:11.000Z,3.45
2023-05-03T21:07:37.933Z,3.55
2023-05-03T21:10:05.860Z,3.30
2023-05-03T21:12:32.479Z,3.30
2023-05-03T21:14:58.883Z,3.10
2023-05-03T21:17:25.285Z,3.78
2023-05-03T21:19:52.131Z,3.65
2023-05-03T21:22:18.639Z,3.70
2023-05-03T21:24:45.067Z,2.97
2023-05-03T21:27:11.405Z,3.22
2023-05-03T21:29:37.870Z,3.60
2023-05-03T21:32:04.540Z,3.17
2023-05-03T21:34:30.957Z,3.38
2023-05-03T21:36:57.440Z,3.08
2023-05-03T21:39:23.910Z,3.70
2023-05-03T21:41:51.332Z,3.90
2023-05-03T21:44:18.508Z,3.55
2023-05-03T21:46:44.925Z,3.42
2023-05-03T21:49:11.786Z,3.88
2023-05-03T21:51:38.177Z,3.90
2023-05-03T21:54:04.644Z,3.33
2023-05-03T21:56:31.078Z,3.90
2023-05-03T21:58:57.430Z,4.43
2023-05-03T22:01:23.977Z,4.10
2023-05-03T22:03:50.540Z,3.50
2023-05-03T22:06:17.062Z,3.90
2023-05-03T22:08:43.513Z,3.70
2023-05-03T22:11:09.916Z,3.33
2023-05-03T22:13:46.077Z,3.42
2023-05-03T22:16:18.308Z,3.65
2023-05-03T22:18:44.847Z,3.40
2023-05-03T22:21:11.268Z,3.90
2023-05-03T22:23:38.042Z,3.75
2023-05-03T22:26:04.433Z,3.50
2023-05-03T22:28:30.841Z,3.40
2023-05-03T22:30:57.472Z,3.63
2023-05-03T22:33:24.705Z,4.07
2023-05-03T22:35:51.100Z,3.60
2023-05-03T22:38:17.576Z,3.92
2023-05-03T22:40:43.950Z,3.40
2023-05-03T22:43:10.524Z,4.43
2023-05-03T22:45:36.928Z,4.22
2023-05-03T22:48:03.490Z,3.92
2023-05-03T22:50:30.821Z,4.35
2023-05-03T22:52:57.256Z,4.50
2023-05-03T22:55:23.632Z,4.03
2023-05-03T22:57:49.992Z,3.88
2023-05-03T23:00:16.909Z,4.68
2023-05-03T23:02:43.379Z,4.30
2023-05-03T23:05:09.797Z,4.57
2023-05-03T23:07:36.198Z,3.92
2023-05-03T23:10:04.032Z,5.03
2023-05-03T23:12:30.942Z,4.20
2023-05-03T23:14:57.433Z,4.35
2023-05-03T23:17:23.978Z,4.50
2023-05-03T23:19:50.453Z,4.82
2023-05-03T23:22:16.838Z,5.20
2023-05-03T23:24:43.215Z,4.85
2023-05-03T23:27:10.833Z,4.25
2023-05-03T23:29:37.688Z,4.57
2023-05-03T23:32:04.700Z,4.38
2023-05-03T23:34:31.696Z,5.00
2023-05-03T23:36:58.070Z,5.10
2023-05-03T23:39:24.481Z,5.13
2023-05-03T23:41:50.883Z,4.68
2023-05-03T23:44:17.215Z,5.55
2023-05-03T23:46:43.604Z,4.60
2023-05-03T23:49:10.054Z,5.22
2023-05-03T23:51:36.529Z,4.60
2023-05-03T23:54:02.927Z,5.10
2023-05-03T23:56:29.283Z,4.70
2023-05-03T23:58:55.646Z,4.85
